Time;durP1;ratioP1;P1;durP2;ratioP2;P2;SDS_P1;SDS_P2;PMS_P1;PMS_P2;Temp;Humidity;BMP_temperature;BMP_pressure;BME280_temperature;BME280_humidity;BME280_pressure;Samples;Min_cycle;Max_cycle;Signal;HPM_P1;HPM_P2
2022/09/08 00:00:31;;;;;;;;;;;18.60;99.90;;;;;;5052753;28;19925;-84
2022/09/08 00:02:59;;;;;;;;;;;18.50;99.90;;;;;;5052502;28;20007;-84
2022/09/08 00:05:26;;;;;;;;;;;18.50;99.90;;;;;;5053041;28;19925;-84
2022/09/08 00:07:52;;;;;;;;;;;18.50;99.90;;;;;;5052832;28;19967;-84
2022/09/08 00:10:18;;;;;;;;;;;18.50;99.90;;;;;;5035916;28;19921;-84
2022/09/08 00:12:44;;;;;;;;;;;18.40;99.90;;;;;;5052341;28;19921;-84
2022/09/08 00:15:10;;;;;;;;;;;18.40;99.90;;;;;;5052309;28;19960;-84
2022/09/08 00:17:36;;;;;;;;;;;18.40;99.90;;;;;;5051141;28;20325;-83
2022/09/08 00:20:02;;;;;;;;;;;18.40;99.90;;;;;;5035930;28;20307;-83
2022/09/08 00:22:28;;;;;;;;;;;18.40;99.90;;;;;;5035642;28;19924;-84
2022/09/08 00:24:53;;;;;;;;;;;18.40;99.90;;;;;;5052165;28;20083;-83
2022/09/08 00:27:19;;;;;;;;;;;18.30;99.90;;;;;;5052447;28;20402;-84
2022/09/08 00:29:44;;;;;;;;;;;18.30;99.90;;;;;;5052141;28;20294;-84
2022/09/08 00:32:10;;;;;;;;;;;18.30;99.90;;;;;;5052096;28;20008;-83
2022/09/08 00:34:35;;;;;;;;;;;18.30;99.90;;;;;;5035403;28;19932;-84
2022/09/08 00:37:02;;;;;;;;;;;18.30;99.90;;;;;;5052264;28;20406;-84
2022/09/08 00:39:27;;;;;;;;;;;18.30;99.90;;;;;;5051824;28;19925;-84
2022/09/08 00:41:54;;;;;;;;;;;18.30;99.90;;;;;;5052213;28;19927;-83
2022/09/08 00:44:44;;;;;;;;;;;18.20;99.90;;;;;;5052084;28;19927;-84
2022/09/08 00:47:19;;;;;;;;;;;18.20;99.90;;;;;;5051373;28;19927;-84
2022/09/08 00:49:46;;;;;;;;;;;18.20;99.90;;;;;;5035294;28;20398;-84
2022/09/08 00:52:12;;;;;;;;;;;18.20;99.90;;;;;;5051621;28;20394;-84
2022/09/08 00:54:37;;;;;;;;;;;18.20;99.90;;;;;;5035154;28;19960;-84
2022/09/08 00:57:03;;;;;;;;;;;18.20;99.90;;;;;;5035192;28;19971;-84
2022/09/08 00:59:31;;;;;;;;;;;18.20;99.90;;;;;;5051696;28;20023;-84
2022/09/08 01:01:57;;;;;;;;;;;18.20;99.90;;;;;;5051285;28;19921;-84
2022/09/08 01:04:23;;;;;;;;;;;18.20;99.90;;;;;;5051758;28;20378;-84
2022/09/08 01:12:44;;;;;;;;;;;18.20;99.90;;;;;;5051033;28;19924;-84
2022/09/08 01:15:18;;;;;;;;;;;18.20;99.90;;;;;;5051342;28;19921;-84
2022/09/08 01:17:47;;;;;;;;;;;18.30;99.90;;;;;;5034503;28;20271;-84
2022/09/08 01:20:13;;;;;;;;;;;18.20;99.90;;;;;;5051530;28;19921;-84
2022/09/08 01:22:39;;;;;;;;;;;18.30;99.90;;;;;;5050977;28;19921;-84
2022/09/08 01:25:13;;;;;;;;;;;18.30;99.90;;;;;;5034307;28;19921;-84
2022/09/08 01:27:39;;;;;;;;;;;18.30;99.90;;;;;;5050751;28;19928;-84
2022/09/08 01:30:06;;;;;;;;;;;18.30;99.90;;;;;;5034409;28;20301;-84
2022/09/08 01:32:33;;;;;;;;;;;18.30;99.90;;;;;;5033893;28;19925;-84
2022/09/08 01:34:59;;;;;;;;;;;18.30;99.90;;;;;;5034551;28;19927;-84
2022/09/08 01:37:24;;;;;;;;;;;18.30;99.90;;;;;;5034264;28;20364;-84
2022/09/08 01:39:50;;;;;;;;;;;18.40;99.90;;;;;;5050766;28;19929;-84
2022/09/08 01:42:16;;;;;;;;;;;18.40;99.90;;;;;;5050997;28;19990;-84
2022/09/08 01:44:43;;;;;;;;;;;18.30;99.90;;;;;;5050976;28;19971;-84
2022/09/08 01:47:09;;;;;;;;;;;18.40;99.90;;;;;;5050194;28;19924;-84
2022/09/08 01:49:34;;;;;;;;;;;18.40;99.90;;;;;;5050772;28;19920;-84
2022/09/08 01:52:00;;;;;;;;;;;18.40;99.90;;;;;;5050686;28;20294;-84
2022/09/08 01:54:27;;;;;;;;;;;18.40;99.90;;;;;;5050524;28;19927;-84
2022/09/08 01:56:53;;;;;;;;;;;18.30;99.90;;;;;;5050423;28;19971;-84
2022/09/08 01:59:19;;;;;;;;;;;18.30;99.90;;;;;;5050407;28;19929;-84
2022/09/08 02:01:45;;;;;;;;;;;18.40;99.90;;;;;;5050486;28;20068;-83
2022/09/08 02:04:10;;;;;;;;;;;18.30;99.90;;;;;;5033681;28;20382;-84
2022/09/08 02:06:35;;;;;;;;;;;18.40;99.90;;;;;;5034047;28;20035;-84
2022/09/08 02:09:01;;;;;;;;;;;18.40;99.90;;;;;;5050299;28;19920;-84
2022/09/08 02:11:27;;;;;;;;;;;18.30;99.90;;;;;;5050484;28;19988;-83
2022/09/08 02:13:52;;;;;;;;;;;18.40;99.90;;;;;;5051942;28;20287;-83
2022/09/08 02:16:18;;;;;;;;;;;18.40;99.90;;;;;;5050024;28;19928;-83
2022/09/08 02:18:43;;;;;;;;;;;18.40;99.90;;;;;;5050402;28;19925;-84
2022/09/08 02:21:10;;;;;;;;;;;18.40;99.90;;;;;;5033686;28;19921;-84
2022/09/08 02:23:37;;;;;;;;;;;18.40;99.90;;;;;;5050349;28;19921;-84
2022/09/08 02:26:03;;;;;;;;;;;18.40;99.90;;;;;;5033325;28;20426;-84
2022/09/08 02:28:28;;;;;;;;;;;18.40;99.90;;;;;;5050699;28;19921;-84
2022/09/08 02:30:58;;;;;;;;;;;18.40;99.90;;;;;;5033174;28;20400;-84
2022/09/08 02:33:24;;;;;;;;;;;18.40;99.90;;;;;;5033568;28;19936;-84
2022/09/08 02:35:50;;;;;;;;;;;18.40;99.90;;;;;;5050113;28;20297;-83
2022/09/08 02:38:15;;;;;;;;;;;18.40;99.90;;;;;;5033200;28;19925;-84
2022/09/08 02:40:41;;;;;;;;;;;18.40;99.90;;;;;;5054092;28;19920;-84
2022/09/08 02:43:09;;;;;;;;;;;18.40;99.90;;;;;;5054646;28;20531;-84
2022/09/08 02:45:40;;;;;;;;;;;18.40;99.90;;;;;;5037422;28;20404;-84
2022/09/08 02:48:06;;;;;;;;;;;18.40;99.90;;;;;;5054429;28;19925;-83
2022/09/08 02:50:31;;;;;;;;;;;18.40;99.90;;;;;;5037451;28;19924;-83
2022/09/08 02:52:57;;;;;;;;;;;18.40;99.90;;;;;;5053926;28;19920;-84
2022/09/08 02:55:23;;;;;;;;;;;18.40;99.90;;;;;;5053821;28;20046;-84
2022/09/08 02:57:49;;;;;;;;;;;18.40;99.90;;;;;;5054119;28;19927;-84
2022/09/08 03:00:15;;;;;;;;;;;18.40;99.90;;;;;;5053834;28;19921;-83
2022/09/08 03:02:40;;;;;;;;;;;18.40;99.90;;;;;;5036932;28;19995;-84
2022/09/08 03:05:06;;;;;;;;;;;18.40;99.90;;;;;;5053877;28;19943;-84
2022/09/08 03:07:31;;;;;;;;;;;18.50;99.90;;;;;;5053600;28;19978;-83
2022/09/08 03:09:57;;;;;;;;;;;18.40;99.90;;;;;;5053907;28;19921;-84
2022/09/08 03:12:26;;;;;;;;;;;18.40;99.90;;;;;;5053447;28;19925;-84
2022/09/08 03:14:52;;;;;;;;;;;18.40;99.90;;;;;;5053517;28;19966;-84
2022/09/08 03:17:17;;;;;;;;;;;18.40;99.90;;;;;;5053454;28;19960;-84
2022/09/08 03:19:43;;;;;;;;;;;18.40;99.90;;;;;;5053851;28;19925;-84
2022/09/08 03:22:08;;;;;;;;;;;18.40;99.90;;;;;;5036449;28;20294;-83
2022/09/08 03:24:34;;;;;;;;;;;18.40;99.90;;;;;;5037111;28;19920;-84
2022/09/08 03:27:00;;;;;;;;;;;18.40;99.90;;;;;;5053480;28;19979;-83
2022/09/08 03:29:27;;;;;;;;;;;18.40;99.90;;;;;;5053459;28;20333;-84
2022/09/08 03:31:52;;;;;;;;;;;18.40;99.90;;;;;;5036503;28;19947;-83
2022/09/08 03:34:18;;;;;;;;;;;18.40;99.90;;;;;;5036872;28;19924;-83
2022/09/08 03:36:43;;;;;;;;;;;18.40;99.90;;;;;;5036619;28;19928;-84
2022/09/08 03:39:09;;;;;;;;;;;18.40;99.90;;;;;;5052991;28;19925;-83
2022/09/08 03:41:34;;;;;;;;;;;18.40;99.90;;;;;;5053011;28;19921;-84
2022/09/08 03:44:00;;;;;;;;;;;18.40;99.90;;;;;;5036698;28;19929;-83
2022/09/08 03:46:25;;;;;;;;;;;18.40;99.90;;;;;;5052614;28;19921;-84
2022/09/08 03:48:51;;;;;;;;;;;18.40;99.90;;;;;;5053169;28;19928;-84
2022/09/08 03:51:22;;;;;;;;;;;18.40;99.90;;;;;;5052376;28;19929;-84
2022/09/08 03:53:47;;;;;;;;;;;18.30;99.90;;;;;;5052820;28;20409;-84
2022/09/08 03:56:13;;;;;;;;;;;18.30;99.90;;;;;;5053206;28;19924;-84
2022/09/08 03:58:39;;;;;;;;;;;18.30;99.90;;;;;;5036195;28;20420;-84
2022/09/08 04:01:12;;;;;;;;;;;18.30;99.90;;;;;;5035625;28;19921;-84
2022/09/08 04:03:38;;;;;;;;;;;18.30;99.90;;;;;;5036208;28;19921;-84
2022/09/08 04:06:04;;;;;;;;;;;18.30;99.90;;;;;;5053137;28;20337;-84
2022/09/08 04:08:29;;;;;;;;;;;18.30;99.90;;;;;;5052542;28;19920;-84
2022/09/08 04:10:55;;;;;;;;;;;18.30;99.90;;;;;;5035798;28;19920;-84
2022/09/08 04:13:21;;;;;;;;;;;18.30;99.90;;;;;;5052525;28;19921;-84
2022/09/08 04:15:46;;;;;;;;;;;18.30;99.90;;;;;;5035524;28;19929;-84
2022/09/08 04:18:12;;;;;;;;;;;18.30;99.90;;;;;;5052491;28;19924;-84
2022/09/08 04:20:38;;;;;;;;;;;18.30;99.90;;;;;;5052511;28;19921;-83
2022/09/08 04:23:05;;;;;;;;;;;18.30;99.90;;;;;;5035682;28;19928;-83
2022/09/08 04:25:30;;;;;;;;;;;18.40;99.90;;;;;;5035565;28;20329;-84
2022/09/08 04:27:56;;;;;;;;;;;18.30;99.90;;;;;;5052399;28;20008;-84
2022/09/08 04:30:22;;;;;;;;;;;18.30;99.90;;;;;;5051952;28;19948;-84
2022/09/08 04:32:47;;;;;;;;;;;18.30;99.90;;;;;;5052385;28;19921;-84
2022/09/08 04:35:13;;;;;;;;;;;18.30;99.90;;;;;;5052178;28;19925;-84
2022/09/08 04:37:38;;;;;;;;;;;18.30;99.90;;;;;;5052038;28;19921;-84
2022/09/08 04:40:06;;;;;;;;;;;18.30;99.90;;;;;;5052507;28;19998;-83
2022/09/08 04:42:33;;;;;;;;;;;18.30;99.90;;;;;;5051846;28;19978;-83
2022/09/08 04:44:59;;;;;;;;;;;18.20;99.90;;;;;;5035131;28;19921;-84
2022/09/08 04:47:25;;;;;;;;;;;18.20;99.90;;;;;;5051940;28;19927;-84
2022/09/08 04:49:52;;;;;;;;;;;18.20;99.90;;;;;;5051968;28;19927;-84
2022/09/08 04:52:20;;;;;;;;;;;18.20;99.90;;;;;;5034955;28;19927;-83
2022/09/08 04:54:45;;;;;;;;;;;18.20;99.90;;;;;;5035276;28;19928;-83
2022/09/08 04:57:11;;;;;;;;;;;18.20;99.90;;;;;;5051649;28;19921;-83
2022/09/08 04:59:37;;;;;;;;;;;18.20;99.90;;;;;;5051560;28;19932;-83
2022/09/08 05:02:02;;;;;;;;;;;18.20;99.90;;;;;;5034410;28;19920;-83
2022/09/08 05:04:28;;;;;;;;;;;18.20;99.90;;;;;;5051746;28;19995;-83
2022/09/08 05:06:53;;;;;;;;;;;18.20;99.90;;;;;;5034766;28;19920;-83
2022/09/08 05:09:19;;;;;;;;;;;18.20;99.90;;;;;;5035080;28;20305;-83
2022/09/08 05:11:44;;;;;;;;;;;18.20;99.90;;;;;;5051349;28;19924;-83
2022/09/08 05:14:10;;;;;;;;;;;18.20;99.90;;;;;;5034600;28;19931;-83
2022/09/08 05:16:35;;;;;;;;;;;18.20;99.90;;;;;;5035053;28;19928;-83
2022/09/08 05:19:02;;;;;;;;;;;18.20;99.90;;;;;;5051258;28;20019;-83
2022/09/08 05:21:29;;;;;;;;;;;18.20;99.90;;;;;;5050743;28;19921;-83
2022/09/08 05:23:55;;;;;;;;;;;18.20;99.90;;;;;;5051272;28;19927;-84
2022/09/08 05:26:21;;;;;;;;;;;18.20;99.90;;;;;;5050977;28;19921;-83
2022/09/08 05:28:47;;;;;;;;;;;18.20;99.90;;;;;;5034312;28;20294;-83
2022/09/08 05:31:14;;;;;;;;;;;18.20;99.90;;;;;;5034598;28;19921;-83
2022/09/08 05:33:39;;;;;;;;;;;18.20;99.90;;;;;;5034423;28;20022;-83
2022/09/08 05:36:09;;;;;;;;;;;18.20;99.90;;;;;;5051035;28;20015;-83
2022/09/08 05:38:35;;;;;;;;;;;18.20;99.90;;;;;;5034323;28;19925;-83
2022/09/08 05:41:01;;;;;;;;;;;18.20;99.90;;;;;;5050639;28;19920;-83
2022/09/08 05:43:26;;;;;;;;;;;18.20;99.90;;;;;;5033995;28;20289;-83
2022/09/08 05:45:52;;;;;;;;;;;18.20;99.90;;;;;;5051230;28;19920;-83
2022/09/08 05:48:17;;;;;;;;;;;18.20;99.90;;;;;;5050550;28;20302;-83
2022/09/08 05:50:44;;;;;;;;;;;18.10;99.90;;;;;;5050364;28;19928;-84
2022/09/08 05:53:09;;;;;;;;;;;18.10;99.90;;;;;;5028140;28;19922;-84
2022/09/08 05:55:35;;;;;;;;;;;18.00;99.90;;;;;;5033728;28;19921;-84
2022/09/08 05:58:01;;;;;;;;;;;18.00;99.90;;;;;;5050566;28;19925;-83
2022/09/08 06:00:26;;;;;;;;;;;18.00;99.90;;;;;;5050339;28;20310;-83
2022/09/08 06:02:52;;;;;;;;;;;17.90;99.90;;;;;;5050680;28;19927;-84
2022/09/08 06:05:19;;;;;;;;;;;17.90;99.90;;;;;;5021804;28;19921;-83
2022/09/08 06:07:44;;;;;;;;;;;17.90;99.90;;;;;;5030617;28;19927;-84
2022/09/08 06:10:10;;;;;;;;;;;17.90;99.90;;;;;;5030840;28;20012;-83
2022/09/08 06:12:35;;;;;;;;;;;17.90;99.90;;;;;;5030085;28;20451;-83
2022/09/08 06:15:01;;;;;;;;;;;17.90;99.90;;;;;;5047424;28;19925;-83
2022/09/08 06:17:26;;;;;;;;;;;17.90;99.90;;;;;;5030286;28;19932;-83
2022/09/08 06:19:52;;;;;;;;;;;18.00;99.90;;;;;;5013791;28;20098;-84
2022/09/08 06:22:17;;;;;;;;;;;17.90;99.90;;;;;;5047101;28;20295;-84
2022/09/08 06:24:43;;;;;;;;;;;18.00;99.90;;;;;;5014154;28;19960;-83
2022/09/08 06:27:16;;;;;;;;;;;18.00;99.90;;;;;;5046636;28;19921;-84
2022/09/08 06:29:49;;;;;;;;;;;18.00;99.90;;;;;;5031805;28;19927;-84
2022/09/08 06:32:20;;;;;;;;;;;18.00;99.90;;;;;;5030551;28;20259;-84
2022/09/08 06:34:47;;;;;;;;;;;18.00;99.90;;;;;;5046712;28;19927;-84
2022/09/08 06:37:22;;;;;;;;;;;18.00;99.90;;;;;;5030070;28;20406;-84
2022/09/08 06:39:53;;;;;;;;;;;18.00;99.90;;;;;;5047003;28;19929;-84
2022/09/08 06:42:23;;;;;;;;;;;18.00;99.90;;;;;;5029716;28;19928;-84
2022/09/08 06:44:51;;;;;;;;;;;18.00;99.90;;;;;;5030442;28;19987;-84
2022/09/08 06:47:18;;;;;;;;;;;18.00;99.90;;;;;;5028805;28;20427;-84
2022/09/08 06:49:44;;;;;;;;;;;18.00;99.90;;;;;;5029803;28;19921;-84
2022/09/08 06:52:09;;;;;;;;;;;18.00;99.90;;;;;;5051608;28;19936;-84
2022/09/08 06:54:38;;;;;;;;;;;18.00;99.90;;;;;;5040219;28;19975;-84
2022/09/08 06:57:22;;;;;;;;;;;18.00;99.90;;;;;;5040144;28;19929;-83
2022/09/08 07:00:00;;;;;;;;;;;18.00;99.90;;;;;;5040040;28;20387;-83
2022/09/08 07:02:35;;;;;;;;;;;18.00;99.90;;;;;;5033045;28;19928;-84
2022/09/08 07:05:05;;;;;;;;;;;18.00;99.90;;;;;;5049639;28;20417;-84
2022/09/08 07:07:31;;;;;;;;;;;18.00;99.90;;;;;;5033785;28;20041;-84
2022/09/08 07:10:17;;;;;;;;;;;18.00;99.90;;;;;;5049863;28;20468;-84
2022/09/08 07:12:52;;;;;;;;;;;18.00;99.90;;;;;;5049308;28;19984;-84
2022/09/08 07:15:29;;;;;;;;;;;17.90;99.90;;;;;;5049801;28;19966;-84
2022/09/08 07:18:16;;;;;;;;;;;18.00;99.90;;;;;;5049884;28;19928;-84
2022/09/08 07:20:42;;;;;;;;;;;17.90;99.90;;;;;;5049484;28;19975;-83
2022/09/08 07:23:21;;;;;;;;;;;17.90;99.90;;;;;;5049420;28;20011;-84
2022/09/08 07:25:59;;;;;;;;;;;17.90;99.90;;;;;;5050696;28;19921;-84
2022/09/08 07:28:27;;;;;;;;;;;17.90;99.90;;;;;;5053189;28;20374;-84
2022/09/08 07:30:56;;;;;;;;;;;17.90;99.90;;;;;;5053308;28;20407;-83
2022/09/08 07:33:39;;;;;;;;;;;17.90;99.90;;;;;;5053386;28;19921;-84
2022/09/08 07:36:11;;;;;;;;;;;17.90;99.90;;;;;;5036800;28;20487;-84
2022/09/08 07:38:43;;;;;;;;;;;17.90;99.90;;;;;;5036958;28;20020;-83
2022/09/08 07:41:09;;;;;;;;;;;17.90;99.90;;;;;;5049690;28;20354;-83
2022/09/08 07:43:34;;;;;;;;;;;17.90;99.90;;;;;;5044662;28;19956;-83
2022/09/08 07:46:03;;;;;;;;;;;17.90;99.90;;;;;;5086823;28;20015;-84
2022/09/08 07:48:41;;;;;;;;;;;17.90;99.90;;;;;;5053055;28;19943;-84
2022/09/08 07:51:11;;;;;;;;;;;17.90;99.90;;;;;;5036612;28;20030;-84
2022/09/08 07:53:37;;;;;;;;;;;17.90;99.90;;;;;;5036598;28;19929;-84
2022/09/08 07:56:11;;;;;;;;;;;17.90;99.90;;;;;;5052686;28;19970;-84
2022/09/08 07:58:41;;;;;;;;;;;17.80;99.90;;;;;;5053023;28;20345;-84
2022/09/08 08:01:12;;;;;;;;;;;17.80;99.90;;;;;;5086399;28;20027;-84
2022/09/08 08:03:44;;;;;;;;;;;17.80;99.90;;;;;;5052915;28;19921;-84
2022/09/08 08:06:23;;;;;;;;;;;17.80;99.90;;;;;;5053098;28;20008;-84
2022/09/08 08:09:02;;;;;;;;;;;17.80;99.90;;;;;;5052878;28;19921;-83
2022/09/08 08:11:47;;;;;;;;;;;17.80;99.90;;;;;;5052563;28;19943;-84
2022/09/08 08:14:21;;;;;;;;;;;17.80;99.90;;;;;;5053859;28;19921;-84
2022/09/08 08:16:46;;;;;;;;;;;17.80;99.90;;;;;;5053959;28;19921;-84
2022/09/08 08:19:34;;;;;;;;;;;17.70;99.90;;;;;;5053380;28;19925;-83
2022/09/08 08:22:22;;;;;;;;;;;17.70;99.90;;;;;;5053833;28;19920;-83
2022/09/08 08:24:54;;;;;;;;;;;17.70;99.90;;;;;;5050624;28;20015;-84
2022/09/08 08:27:26;;;;;;;;;;;17.70;99.90;;;;;;5052233;28;19929;-84
2022/09/08 08:30:01;;;;;;;;;;;17.70;99.90;;;;;;5052243;28;20460;-84
2022/09/08 08:32:29;;;;;;;;;;;17.60;99.90;;;;;;5052252;28;19921;-84
2022/09/08 08:35:05;;;;;;;;;;;17.60;99.90;;;;;;5052150;28;19921;-84
2022/09/08 08:37:32;;;;;;;;;;;17.60;99.90;;;;;;5034830;28;20401;-83
2022/09/08 08:39:57;;;;;;;;;;;17.50;99.90;;;;;;5052291;28;19964;-83
2022/09/08 08:42:29;;;;;;;;;;;17.50;99.90;;;;;;5084896;28;19972;-84
2022/09/08 08:45:00;;;;;;;;;;;17.50;99.90;;;;;;5052162;28;19967;-83
2022/09/08 08:47:32;;;;;;;;;;;17.50;99.90;;;;;;5051934;28;19921;-84
2022/09/08 08:50:07;;;;;;;;;;;17.50;99.90;;;;;;5051722;28;19924;-84
2022/09/08 08:52:49;;;;;;;;;;;17.50;99.90;;;;;;5051777;28;19924;-84
2022/09/08 08:55:35;;;;;;;;;;;17.50;99.90;;;;;;5051558;28;20459;-84
2022/09/08 08:58:21;;;;;;;;;;;17.50;99.90;;;;;;5051508;28;21265;-83
2022/09/08 09:00:50;;;;;;;;;;;17.50;99.90;;;;;;5085371;28;19925;-83
2022/09/08 09:03:19;;;;;;;;;;;17.40;99.90;;;;;;5034655;28;19931;-83
2022/09/08 09:05:49;;;;;;;;;;;17.40;99.90;;;;;;5051869;28;19921;-83
2022/09/08 09:08:24;;;;;;;;;;;17.40;99.90;;;;;;5051757;28;19928;-84
2022/09/08 09:10:50;;;;;;;;;;;17.40;99.90;;;;;;5051178;28;19920;-83
2022/09/08 09:13:15;;;;;;;;;;;17.40;99.90;;;;;;5051820;28;19927;-84
2022/09/08 09:15:50;;;;;;;;;;;17.50;99.90;;;;;;5051518;28;19982;-84
2022/09/08 09:18:16;;;;;;;;;;;17.50;99.90;;;;;;5084735;28;19964;-84
2022/09/08 09:21:03;;;;;;;;;;;17.50;99.90;;;;;;5051824;28;19972;-84
2022/09/08 09:23:29;;;;;;;;;;;17.50;99.90;;;;;;5051393;28;19963;-84
2022/09/08 09:25:59;;;;;;;;;;;17.50;99.90;;;;;;5050963;28;20025;-83
2022/09/08 09:28:24;;;;;;;;;;;17.40;99.90;;;;;;5050913;28;20309;-84
2022/09/08 09:31:05;;;;;;;;;;;17.40;99.90;;;;;;5034593;28;19921;-83
2022/09/08 09:33:54;;;;;;;;;;;17.40;99.90;;;;;;5051238;28;19942;-84
2022/09/08 09:36:22;;;;;;;;;;;17.40;99.90;;;;;;5051028;28;20413;-84
2022/09/08 09:38:57;;;;;;;;;;;17.40;99.90;;;;;;5051257;28;20407;-84
2022/09/08 09:41:28;;;;;;;;;;;17.40;99.90;;;;;;5051980;28;19952;-84
2022/09/08 09:44:20;;;;;;;;;;;17.40;99.90;;;;;;5034434;28;19970;-84
2022/09/08 09:47:02;;;;;;;;;;;17.40;99.90;;;;;;5049115;28;19921;-84
2022/09/08 09:49:30;;;;;;;;;;;17.40;99.90;;;;;;5034292;28;20298;-84
2022/09/08 09:51:56;;;;;;;;;;;17.40;99.90;;;;;;5049240;28;19928;-84
2022/09/08 09:54:48;;;;;;;;;;;17.30;99.90;;;;;;5050696;28;19921;-84
2022/09/08 09:57:31;;;;;;;;;;;17.30;99.90;;;;;;5034603;28;19927;-84
2022/09/08 10:00:17;;;;;;;;;;;17.30;99.90;;;;;;5050697;28;20051;-84
2022/09/08 10:03:01;;;;;;;;;;;17.30;99.90;;;;;;5050093;28;19929;-84
2022/09/08 10:05:42;;;;;;;;;;;17.30;99.90;;;;;;5050325;28;20027;-84
2022/09/08 10:08:26;;;;;;;;;;;17.30;99.90;;;;;;5050639;28;19931;-84
2022/09/08 10:10:58;;;;;;;;;;;17.30;99.90;;;;;;5050212;28;19929;-84
2022/09/08 10:13:44;;;;;;;;;;;17.30;99.90;;;;;;5033884;28;20371;-84
2022/09/08 10:16:28;;;;;;;;;;;17.30;99.90;;;;;;5033557;28;19924;-84
2022/09/08 10:18:54;;;;;;;;;;;17.30;99.90;;;;;;5050303;28;19928;-84
2022/09/08 10:21:38;;;;;;;;;;;17.30;99.90;;;;;;5050132;28;19924;-83
2022/09/08 10:24:10;;;;;;;;;;;17.30;99.90;;;;;;5050243;28;19927;-84
2022/09/08 10:26:35;;;;;;;;;;;17.30;99.90;;;;;;5050161;28;19927;-84
2022/09/08 10:29:13;;;;;;;;;;;17.30;99.90;;;;;;5034069;28;19920;-83
2022/09/08 10:31:54;;;;;;;;;;;17.30;99.90;;;;;;5049946;28;20015;-84
2022/09/08 10:34:22;;;;;;;;;;;17.30;99.90;;;;;;5033980;28;19921;-83
2022/09/08 10:37:09;;;;;;;;;;;17.30;99.90;;;;;;5033221;28;19962;-84
2022/09/08 10:39:41;;;;;;;;;;;17.30;99.90;;;;;;5049734;28;19921;-84
2022/09/08 10:42:09;;;;;;;;;;;17.30;99.90;;;;;;5033427;28;19925;-84
2022/09/08 10:45:04;;;;;;;;;;;17.30;99.90;;;;;;5033769;28;19921;-83
2022/09/08 10:47:30;;;;;;;;;;;17.30;99.90;;;;;;5044984;28;19931;-83
2022/09/08 10:50:10;;;;;;;;;;;17.30;99.90;;;;;;5049752;28;19921;-84
2022/09/08 10:52:44;;;;;;;;;;;17.30;99.90;;;;;;5049115;28;19991;-84
2022/09/08 10:55:28;;;;;;;;;;;17.30;99.90;;;;;;5048838;28;19927;-84
2022/09/08 10:58:06;;;;;;;;;;;17.30;99.90;;;;;;5048951;28;19974;-84
2022/09/08 11:00:53;;;;;;;;;;;17.30;99.90;;;;;;5050590;28;19925;-84
2022/09/08 11:03:19;;;;;;;;;;;17.30;99.90;;;;;;5053269;28;19921;-84
2022/09/08 11:05:58;;;;;;;;;;;17.30;99.90;;;;;;5055087;28;19989;-84
2022/09/08 11:08:37;;;;;;;;;;;17.30;99.90;;;;;;5053728;28;19921;-84
2022/09/08 11:11:12;;;;;;;;;;;17.30;99.90;;;;;;5053646;28;19920;-84
2022/09/08 11:13:59;;;;;;;;;;;17.30;99.90;;;;;;5055137;28;19974;-84
2022/09/08 11:16:24;;;;;;;;;;;17.30;99.90;;;;;;5053437;28;19974;-84
2022/09/08 11:19:06;;;;;;;;;;;17.30;99.90;;;;;;5053700;28;19924;-83
2022/09/08 11:21:36;;;;;;;;;;;17.40;99.90;;;;;;5053623;28;19947;-83
2022/09/08 11:24:17;;;;;;;;;;;17.40;99.90;;;;;;5053357;28;19924;-84
2022/09/08 11:26:42;;;;;;;;;;;17.40;99.90;;;;;;5051470;28;19921;-83
2022/09/08 11:29:09;;;;;;;;;;;17.40;99.90;;;;;;5037244;28;20062;-83
2022/09/08 11:31:38;;;;;;;;;;;17.40;99.90;;;;;;5052999;28;19920;-83
2022/09/08 11:34:15;;;;;;;;;;;17.40;99.90;;;;;;5053432;28;19925;-84
2022/09/08 11:36:56;;;;;;;;;;;17.40;99.90;;;;;;5053712;28;20059;-84
2022/09/08 11:39:36;;;;;;;;;;;17.40;99.90;;;;;;5053191;28;20393;-84
2022/09/08 11:42:08;;;;;;;;;;;17.40;99.90;;;;;;5053399;28;19925;-83
2022/09/08 11:44:33;;;;;;;;;;;17.40;99.90;;;;;;5036456;28;20421;-84
2022/09/08 11:47:05;;;;;;;;;;;17.40;99.90;;;;;;5053208;28;19960;-84
2022/09/08 11:49:42;;;;;;;;;;;17.50;99.90;;;;;;5053202;28;20453;-84
2022/09/08 11:52:07;;;;;;;;;;;17.50;99.90;;;;;;5052832;28;20302;-84
2022/09/08 11:54:52;;;;;;;;;;;17.50;99.90;;;;;;5053027;28;19928;-84
2022/09/08 11:57:37;;;;;;;;;;;17.50;99.90;;;;;;5053041;28;20642;-84
2022/09/08 12:00:11;;;;;;;;;;;17.60;99.90;;;;;;5052787;28;19927;-84
2022/09/08 12:02:40;;;;;;;;;;;17.60;99.90;;;;;;5036418;28;19925;-84
2022/09/08 12:05:17;;;;;;;;;;;17.60;99.90;;;;;;5036547;28;19991;-84
2022/09/08 12:07:42;;;;;;;;;;;17.60;99.90;;;;;;5052942;28;20480;-84
2022/09/08 12:10:11;;;;;;;;;;;17.70;99.90;;;;;;5036510;28;19920;-84
2022/09/08 12:12:39;;;;;;;;;;;17.70;99.90;;;;;;5052690;28;19920;-84
2022/09/08 12:15:05;;;;;;;;;;;17.70;99.90;;;;;;5052587;28;19925;-84
2022/09/08 12:17:56;;;;;;;;;;;17.80;99.90;;;;;;5035743;28;19928;-84
2022/09/08 12:20:25;;;;;;;;;;;17.70;99.90;;;;;;5052973;28;19925;-84
2022/09/08 12:22:51;;;;;;;;;;;17.80;99.90;;;;;;5052122;28;19920;-84
2022/09/08 12:25:34;;;;;;;;;;;17.80;99.90;;;;;;5052835;28;19927;-84
2022/09/08 12:28:11;;;;;;;;;;;17.90;99.90;;;;;;5052472;28;19920;-84
2022/09/08 12:30:51;;;;;;;;;;;17.90;99.90;;;;;;5035630;28;19986;-84
2022/09/08 12:33:29;;;;;;;;;;;18.00;99.90;;;;;;5035734;28;19972;-84
2022/09/08 12:36:08;;;;;;;;;;;17.90;99.90;;;;;;5035992;28;19986;-84
2022/09/08 12:38:43;;;;;;;;;;;18.00;99.90;;;;;;5051909;28;20020;-84
2022/09/08 12:41:27;;;;;;;;;;;18.00;99.90;;;;;;5035486;28;19974;-84
2022/09/08 12:44:06;;;;;;;;;;;18.10;99.90;;;;;;5052160;28;19960;-84
2022/09/08 12:46:42;;;;;;;;;;;18.20;99.90;;;;;;5051758;28;19968;-84
2022/09/08 12:49:24;;;;;;;;;;;18.30;99.90;;;;;;5035268;28;20019;-84
2022/09/08 12:51:52;;;;;;;;;;;18.30;99.90;;;;;;5035001;28;19925;-84
2022/09/08 12:54:30;;;;;;;;;;;18.40;99.90;;;;;;5052067;28;19925;-84
2022/09/08 12:57:02;;;;;;;;;;;18.40;99.90;;;;;;5051797;28;19921;-84
2022/09/08 12:59:44;;;;;;;;;;;18.40;99.90;;;;;;5051185;28;19931;-84
2022/09/08 13:02:42;;;;;;;;;;;18.40;99.90;;;;;;5052898;28;19925;-84
2022/09/08 13:05:16;;;;;;;;;;;18.50;99.90;;;;;;4994742;28;20362;-84
2022/09/08 13:07:47;;;;;;;;;;;18.50;99.90;;;;;;4994147;28;20389;-84
2022/09/08 13:10:21;;;;;;;;;;;18.60;99.90;;;;;;4994590;28;19922;-84
2022/09/08 13:12:49;;;;;;;;;;;18.60;99.90;;;;;;4994191;28;19957;-84
2022/09/08 13:15:18;;;;;;;;;;;18.70;99.90;;;;;;4993969;28;20379;-84
2022/09/08 13:18:03;;;;;;;;;;;18.80;99.90;;;;;;5010734;28;19921;-84
2022/09/08 13:20:37;;;;;;;;;;;18.80;99.90;;;;;;4994228;28;19940;-84
2022/09/08 13:23:03;;;;;;;;;;;18.90;99.90;;;;;;4993399;28;19928;-84
2022/09/08 13:25:40;;;;;;;;;;;18.90;99.90;;;;;;4977675;28;19925;-84
2022/09/08 13:28:24;;;;;;;;;;;18.90;99.90;;;;;;4977636;28;19922;-84
2022/09/08 13:30:58;;;;;;;;;;;19.00;99.90;;;;;;4993494;28;19921;-85
2022/09/08 13:33:29;;;;;;;;;;;19.00;99.90;;;;;;4994118;28;20004;-84
2022/09/08 13:36:07;;;;;;;;;;;19.00;99.90;;;;;;4993849;28;19925;-84
2022/09/08 13:38:44;;;;;;;;;;;19.00;99.90;;;;;;4977675;28;19972;-84
2022/09/08 13:41:39;;;;;;;;;;;19.10;99.90;;;;;;5031949;28;20337;-84
2022/09/08 13:44:23;;;;;;;;;;;19.20;99.90;;;;;;5016324;28;19928;-84
2022/09/08 13:46:54;;;;;;;;;;;19.20;99.90;;;;;;5032659;28;19924;-84
2022/09/08 13:49:39;;;;;;;;;;;19.30;99.90;;;;;;5032551;28;19921;-85
2022/09/08 13:52:30;;;;;;;;;;;19.40;99.90;;;;;;5032328;28;19975;-84
2022/09/08 13:55:15;;;;;;;;;;;19.40;99.90;;;;;;5016117;28;19921;-84
2022/09/08 13:57:40;;;;;;;;;;;19.50;99.90;;;;;;5033132;28;19944;-84
2022/09/08 14:00:09;;;;;;;;;;;19.50;99.90;;;;;;5031974;28;20353;-85
2022/09/08 14:02:53;;;;;;;;;;;19.50;99.90;;;;;;5015610;28;19925;-85
2022/09/08 14:05:24;;;;;;;;;;;19.50;99.90;;;;;;5012440;28;19921;-85
2022/09/08 14:07:57;;;;;;;;;;;19.60;99.90;;;;;;5016203;28;19921;-85
2022/09/08 14:10:42;;;;;;;;;;;19.60;99.90;;;;;;5046493;28;19921;-85
2022/09/08 14:13:10;;;;;;;;;;;19.70;99.90;;;;;;5039576;28;19921;-84
2022/09/08 14:15:44;;;;;;;;;;;19.70;99.90;;;;;;5020725;28;19925;-84
2022/09/08 14:18:13;;;;;;;;;;;19.70;99.90;;;;;;5022089;28;19971;-85
2022/09/08 14:20:39;;;;;;;;;;;19.80;99.90;;;;;;5029563;28;20318;-84
2022/09/08 14:23:27;;;;;;;;;;;19.80;99.90;;;;;;5031492;28;19921;-84
2022/09/08 14:26:13;;;;;;;;;;;19.70;99.90;;;;;;5066481;28;19925;-84
2022/09/08 14:28:48;;;;;;;;;;;19.70;99.90;;;;;;5032331;28;20054;-84
2022/09/08 14:31:25;;;;;;;;;;;19.70;99.90;;;;;;5049862;28;19924;-84
2022/09/08 14:33:54;;;;;;;;;;;19.60;99.90;;;;;;5049704;28;19974;-84
2022/09/08 14:36:35;;;;;;;;;;;19.10;99.90;;;;;;5047937;28;20298;-84
2022/09/08 14:39:09;;;;;;;;;;;18.80;99.90;;;;;;5048263;28;20306;-84
2022/09/08 14:41:45;;;;;;;;;;;18.60;99.90;;;;;;5049877;28;19932;-84
2022/09/08 14:44:17;;;;;;;;;;;18.60;99.90;;;;;;5033407;28;19925;-84